sensor_id;sensor_type;location;lat;lon;timestamp;pressure;altitude;pressure_sealevel;temperature;humidity
74659;BME280;63186;51.204;6.536;2023-05-16T00:02:24;101245.53;;;9.71;100.00
74659;BME280;63186;51.204;6.536;2023-05-16T00:04:49;101246.19;;;9.63;100.00
74659;BME280;63186;51.204;6.536;2023-05-16T00:07:14;101248.47;;;9.56;100.00
74659;BME280;63186;51.204;6.536;2023-05-16T00:09:40;101242.22;;;9.50;100.00
74659;BME280;63186;51.204;6.536;2023-05-16T00:12:05;101260.13;;;9.48;100.00
74659;BME280;63186;51.204;6.536;2023-05-16T00:14:31;101246.47;;;9.38;100.00
74659;BME280;63186;51.204;6.536;2023-05-16T00:16:57;101254.28;;;9.25;100.00
74659;BME280;63186;51.204;6.536;2023-05-16T00:19:23;101259.25;;;9.23;100.00
74659;BME280;63186;51.204;6.536;2023-05-16T00:21:48;101262.63;;;9.15;100.00
74659;BME280;63186;51.204;6.536;2023-05-16T00:24:14;101271.22;;;9.09;100.00
74659;BME280;63186;51.204;6.536;2023-05-16T00:26:39;101266.00;;;9.07;100.00
74659;BME280;63186;51.204;6.536;2023-05-16T00:29:05;101269.28;;;9.09;100.00
74659;BME280;63186;51.204;6.536;2023-05-16T00:31:31;101266.28;;;9.06;100.00
74659;BME280;63186;51.204;6.536;2023-05-16T00:33:56;101274.00;;;9.04;100.00
74659;BME280;63186;51.204;6.536;2023-05-16T00:36:22;101273.19;;;9.03;100.00
74659;BME280;63186;51.204;6.536;2023-05-16T00:38:47;101268.50;;;9.04;100.00
74659;BME280;63186;51.204;6.536;2023-05-16T00:41:13;101273.19;;;9.03;100.00
74659;BME280;63186;51.204;6.536;2023-05-16T00:43:38;101268.84;;;8.97;100.00
74659;BME280;63186;51.204;6.536;2023-05-16T00:46:04;101275.41;;;9.01;100.00
74659;BME280;63186;51.204;6.536;2023-05-16T00:48:29;101275.97;;;8.98;100.00
74659;BME280;63186;51.204;6.536;2023-05-16T00:50:55;101267.72;;;8.98;100.00
74659;BME280;63186;51.204;6.536;2023-05-16T00:53:21;101277.06;;;8.97;100.00
74659;BME280;63186;51.204;6.536;2023-05-16T00:55:47;101271.06;;;8.95;100.00
74659;BME280;63186;51.204;6.536;2023-05-16T00:58:13;101277.38;;;8.95;100.00
74659;BME280;63186;51.204;6.536;2023-05-16T01:00:38;101275.97;;;8.98;100.00
74659;BME280;63186;51.204;6.536;2023-05-16T01:03:08;101272.41;;;8.97;100.00
74659;BME280;63186;51.204;6.536;2023-05-16T01:05:33;101266.38;;;8.95;100.00
74659;BME280;63186;51.204;6.536;2023-05-16T01:07:58;101275.44;;;8.96;100.00
74659;BME280;63186;51.204;6.536;2023-05-16T01:10:26;101280.16;;;8.90;100.00
74659;BME280;63186;51.204;6.536;2023-05-16T01:13:10;101284.03;;;8.84;100.00
74659;BME280;63186;51.204;6.536;2023-05-16T01:15:49;101273.38;;;8.78;100.00
74659;BME280;63186;51.204;6.536;2023-05-16T01:18:30;101288.75;;;8.79;100.00
74659;BME280;63186;51.204;6.536;2023-05-16T01:21:04;101293.19;;;8.75;100.00
74659;BME280;63186;51.204;6.536;2023-05-16T01:23:40;101295.13;;;8.74;100.00
74659;BME280;63186;51.204;6.536;2023-05-16T01:26:25;101294.56;;;8.72;100.00
74659;BME280;63186;51.204;6.536;2023-05-16T01:28:51;101296.28;;;8.63;100.00
74659;BME280;63186;51.204;6.536;2023-05-16T01:31:18;101301.78;;;8.58;100.00
74659;BME280;63186;51.204;6.536;2023-05-16T01:33:43;101303.72;;;8.57;100.00
74659;BME280;63186;51.204;6.536;2023-05-16T01:36:32;101304.00;;;8.61;100.00
74659;BME280;63186;51.204;6.536;2023-05-16T01:39:06;101305.34;;;8.58;100.00
74659;BME280;63186;51.204;6.536;2023-05-16T01:41:58;101307.28;;;8.58;100.00
74659;BME280;63186;51.204;6.536;2023-05-16T01:46:58;101311.16;;;8.52;100.00
74659;BME280;63186;51.204;6.536;2023-05-16T01:49:41;101314.44;;;8.54;100.00
74659;BME280;63186;51.204;6.536;2023-05-16T01:52:13;101326.53;;;8.53;100.00
74659;BME280;63186;51.204;6.536;2023-05-16T01:54:43;101329.25;;;8.53;100.00
74659;BME280;63186;51.204;6.536;2023-05-16T01:57:09;101332.59;;;8.50;100.00
74659;BME280;63186;51.204;6.536;2023-05-16T01:59:37;101321.34;;;8.46;100.00
74659;BME280;63186;51.204;6.536;2023-05-16T02:02:03;101328.47;;;8.47;100.00
74659;BME280;63186;51.204;6.536;2023-05-16T02:04:28;101327.38;;;8.48;100.00
74659;BME280;63186;51.204;6.536;2023-05-16T02:06:54;101335.88;;;8.47;100.00
74659;BME280;63186;51.204;6.536;2023-05-16T02:09:19;101336.47;;;8.43;100.00
74659;BME280;63186;51.204;6.536;2023-05-16T02:11:44;101333.44;;;8.45;100.00
74659;BME280;63186;51.204;6.536;2023-05-16T02:14:11;101341.13;;;8.43;100.00
74659;BME280;63186;51.204;6.536;2023-05-16T02:16:36;101334.03;;;8.37;100.00
74659;BME280;63186;51.204;6.536;2023-05-16T02:19:01;101341.69;;;8.40;100.00
74659;BME280;63186;51.204;6.536;2023-05-16T02:21:26;101337.56;;;8.42;100.00
74659;BME280;63186;51.204;6.536;2023-05-16T02:23:52;101341.41;;;8.41;100.00
74659;BME280;63186;51.204;6.536;2023-05-16T02:26:17;101347.44;;;8.43;100.00
74659;BME280;63186;51.204;6.536;2023-05-16T02:28:42;101341.69;;;8.40;100.00
74659;BME280;63186;51.204;6.536;2023-05-16T02:31:08;101340.34;;;8.37;100.00
74659;BME280;63186;51.204;6.536;2023-05-16T02:33:33;101357.59;;;8.38;100.00
74659;BME280;63186;51.204;6.536;2023-05-16T02:35:58;101354.03;;;8.37;100.00
74659;BME280;63186;51.204;6.536;2023-05-16T02:38:24;101354.31;;;8.31;100.00
74659;BME280;63186;51.204;6.536;2023-05-16T02:40:49;101359.28;;;8.29;100.00
74659;BME280;63186;51.204;6.536;2023-05-16T02:43:15;101357.59;;;8.28;100.00
74659;BME280;63186;51.204;6.536;2023-05-16T02:45:40;101361.75;;;8.25;100.00
74659;BME280;63186;51.204;6.536;2023-05-16T02:48:05;101363.97;;;8.23;100.00
74659;BME280;63186;51.204;6.536;2023-05-16T02:50:32;101358.78;;;8.16;100.00
74659;BME280;63186;51.204;6.536;2023-05-16T02:52:57;101378.50;;;8.13;100.00
74659;BME280;63186;51.204;6.536;2023-05-16T02:55:24;101375.53;;;8.10;100.00
74659;BME280;63186;51.204;6.536;2023-05-16T02:57:49;101385.69;;;8.04;100.00
74659;BME280;63186;51.204;6.536;2023-05-16T03:00:15;101378.81;;;8.02;100.00
74659;BME280;63186;51.204;6.536;2023-05-16T03:02:41;101395.03;;;7.98;100.00
74659;BME280;63186;51.204;6.536;2023-05-16T03:05:06;101398.59;;;7.88;100.00
74659;BME280;63186;51.204;6.536;2023-05-16T03:07:31;101387.66;;;7.78;100.00
74659;BME280;63186;51.204;6.536;2023-05-16T03:09:57;101394.78;;;7.74;100.00
74659;BME280;63186;51.204;6.536;2023-05-16T03:12:22;101402.75;;;7.71;100.00
74659;BME280;63186;51.204;6.536;2023-05-16T03:14:47;101413.44;;;7.67;100.00
74659;BME280;63186;51.204;6.536;2023-05-16T03:17:12;101410.44;;;7.64;100.00
74659;BME280;63186;51.204;6.536;2023-05-16T03:19:38;101410.44;;;7.53;100.00
74659;BME280;63186;51.204;6.536;2023-05-16T03:22:03;101412.63;;;7.41;100.00
74659;BME280;63186;51.204;6.536;2023-05-16T03:24:28;101408.78;;;7.27;100.00
74659;BME280;63186;51.204;6.536;2023-05-16T03:26:54;101408.75;;;7.17;100.00
74659;BME280;63186;51.204;6.536;2023-05-16T03:29:20;101404.09;;;7.07;100.00
74659;BME280;63186;51.204;6.536;2023-05-16T03:31:45;101406.00;;;7.01;100.00
74659;BME280;63186;51.204;6.536;2023-05-16T03:34:10;101402.44;;;6.96;100.00
74659;BME280;63186;51.204;6.536;2023-05-16T03:36:38;101417.19;;;6.90;100.00
74659;BME280;63186;51.204;6.536;2023-05-16T03:39:03;101415.28;;;6.80;100.00
74659;BME280;63186;51.204;6.536;2023-05-16T03:41:29;101419.94;;;6.79;100.00
74659;BME280;63186;51.204;6.536;2023-05-16T03:43:54;101425.41;;;6.79;100.00
74659;BME280;63186;51.204;6.536;2023-05-16T03:46:19;101424.00;;;6.77;100.00
74659;BME280;63186;51.204;6.536;2023-05-16T03:48:45;101429.47;;;6.77;100.00
74659;BME280;63186;51.204;6.536;2023-05-16T03:51:10;101434.13;;;6.71;100.00
74659;BME280;63186;51.204;6.536;2023-05-16T03:53:36;101437.41;;;6.68;100.00
74659;BME280;63186;51.204;6.536;2023-05-16T03:56:01;101452.19;;;6.67;100.00
74659;BME280;63186;51.204;6.536;2023-05-16T03:58:28;101447.81;;;6.66;100.00
74659;BME280;63186;51.204;6.536;2023-05-16T04:00:53;101446.69;;;6.62;100.00
74659;BME280;63186;51.204;6.536;2023-05-16T04:03:18;101449.41;;;6.62;100.00
74659;BME280;63186;51.204;6.536;2023-05-16T04:05:44;101446.97;;;6.61;100.00
74659;BME280;63186;51.204;6.536;2023-05-16T04:08:09;101460.34;;;6.62;100.00
74659;BME280;63186;51.204;6.536;2023-05-16T04:10:34;101464.19;;;6.61;100.00
74659;BME280;63186;51.204;6.536;2023-05-16T04:13:00;101456.78;;;6.57;100.00
74659;BME280;63186;51.204;6.536;2023-05-16T04:15:25;101462.81;;;6.59;100.00
74659;BME280;63186;51.204;6.536;2023-05-16T04:17:50;101457.34;;;6.59;100.00
74659;BME280;63186;51.204;6.536;2023-05-16T04:20:15;101466.38;;;6.64;100.00
74659;BME280;63186;51.204;6.536;2023-05-16T04:22:41;101471.06;;;6.69;100.00
74659;BME280;63186;51.204;6.536;2023-05-16T04:25:06;101478.75;;;6.72;100.00
74659;BME280;63186;51.204;6.536;2023-05-16T04:27:32;101477.13;;;6.81;100.00
74659;BME280;63186;51.204;6.536;2023-05-16T04:29:57;101478.81;;;7.02;100.00
74659;BME280;63186;51.204;6.536;2023-05-16T04:32:23;101490.94;;;7.27;100.00
74659;BME280;63186;51.204;6.536;2023-05-16T04:34:49;101493.16;;;7.76;98.36
74659;BME280;63186;51.204;6.536;2023-05-16T04:37:17;101498.56;;;8.52;95.51
74659;BME280;63186;51.204;6.536;2023-05-16T04:39:42;101497.34;;;8.94;92.53
74659;BME280;63186;51.204;6.536;2023-05-16T04:42:07;101504.09;;;9.12;89.92
74659;BME280;63186;51.204;6.536;2023-05-16T04:44:33;101497.16;;;9.24;89.83
74659;BME280;63186;51.204;6.536;2023-05-16T04:46:58;101510.88;;;9.30;88.61
74659;BME280;63186;51.204;6.536;2023-05-16T04:49:23;101515.97;;;8.97;89.29
74659;BME280;63186;51.204;6.536;2023-05-16T04:51:49;101513.06;;;8.73;90.27
74659;BME280;63186;51.204;6.536;2023-05-16T04:54:14;101514.81;;;8.38;92.02
74659;BME280;63186;51.204;6.536;2023-05-16T04:56:39;101521.13;;;8.29;93.10
74659;BME280;63186;51.204;6.536;2023-05-16T04:59:05;101526.81;;;8.68;91.64
74659;BME280;63186;51.204;6.536;2023-05-16T05:01:30;101513.88;;;8.74;91.20
74659;BME280;63186;51.204;6.536;2023-05-16T05:03:55;101517.25;;;9.20;89.81
74659;BME280;63186;51.204;6.536;2023-05-16T05:06:21;101521.50;;;9.81;87.13
74659;BME280;63186;51.204;6.536;2023-05-16T05:08:46;101522.88;;;10.46;84.71
74659;BME280;63186;51.204;6.536;2023-05-16T05:11:12;101520.41;;;10.93;81.18
74659;BME280;63186;51.204;6.536;2023-05-16T05:13:37;101522.53;;;11.38;80.14
74659;BME280;63186;51.204;6.536;2023-05-16T05:16:03;101526.78;;;11.68;77.12
74659;BME280;63186;51.204;6.536;2023-05-16T05:18:29;101532.91;;;11.84;76.66
74659;BME280;63186;51.204;6.536;2023-05-16T05:20:54;101533.91;;;12.07;76.01
74659;BME280;63186;51.204;6.536;2023-05-16T05:23:20;101530.59;;;12.38;75.45
74659;BME280;63186;51.204;6.536;2023-05-16T05:25:45;101542.16;;;12.26;74.33
74659;BME280;63186;51.204;6.536;2023-05-16T05:28:11;101541.03;;;12.41;74.75
74659;BME280;63186;51.204;6.536;2023-05-16T05:30:36;101545.53;;;12.50;73.83
74659;BME280;63186;51.204;6.536;2023-05-16T05:33:01;101544.13;;;12.53;73.83
74659;BME280;63186;51.204;6.536;2023-05-16T05:35:27;101550.13;;;12.41;73.90
74659;BME280;63186;51.204;6.536;2023-05-16T05:37:52;101556.75;;;11.75;74.93
74659;BME280;63186;51.204;6.536;2023-05-16T05:40:17;101559.47;;;11.19;77.35
74659;BME280;63186;51.204;6.536;2023-05-16T05:42:43;101560.47;;;11.47;78.33
74659;BME280;63186;51.204;6.536;2023-05-16T05:45:08;101562.34;;;11.70;77.00
74659;BME280;63186;51.204;6.536;2023-05-16T05:47:33;101558.91;;;11.97;75.52
74659;BME280;63186;51.204;6.536;2023-05-16T05:49:59;101561.19;;;12.41;74.33
74659;BME280;63186;51.204;6.536;2023-05-16T05:52:25;101562.06;;;13.11;72.22
74659;BME280;63186;51.204;6.536;2023-05-16T05:54:52;101574.63;;;13.17;70.21
74659;BME280;63186;51.204;6.536;2023-05-16T05:57:17;101570.78;;;13.68;69.92
74659;BME280;63186;51.204;6.536;2023-05-16T05:59:43;101558.66;;;13.77;65.84
74659;BME280;63186;51.204;6.536;2023-05-16T06:02:08;101566.91;;;13.91;67.28
74659;BME280;63186;51.204;6.536;2023-05-16T06:04:33;101565.94;;;13.73;67.41
74659;BME280;63186;51.204;6.536;2023-05-16T06:06:59;101578.84;;;13.00;69.47
74659;BME280;63186;51.204;6.536;2023-05-16T06:09:24;101575.84;;;12.69;71.24
74659;BME280;63186;51.204;6.536;2023-05-16T06:11:49;101580.69;;;13.05;72.47
74659;BME280;63186;51.204;6.536;2023-05-16T06:14:15;101581.69;;;14.31;67.19
74659;BME280;63186;51.204;6.536;2023-05-16T06:16:40;101582.19;;;14.87;64.20
74659;BME280;63186;51.204;6.536;2023-05-16T06:19:06;101596.41;;;14.18;65.83
74659;BME280;63186;51.204;6.536;2023-05-16T06:21:31;101594.31;;;13.79;66.78
74659;BME280;63186;51.204;6.536;2023-05-16T06:23:57;101588.66;;;15.13;65.57
74659;BME280;63186;51.204;6.536;2023-05-16T06:26:22;101589.72;;;15.04;61.69
74659;BME280;63186;51.204;6.536;2023-05-16T06:28:48;101596.84;;;15.36;63.58
74659;BME280;63186;51.204;6.536;2023-05-16T06:31:13;101594.81;;;15.93;61.01
74659;BME280;63186;51.204;6.536;2023-05-16T06:33:39;101589.84;;;14.59;62.91
74659;BME280;63186;51.204;6.536;2023-05-16T06:36:05;101592.94;;;14.88;63.68
74659;BME280;63186;51.204;6.536;2023-05-16T06:38:30;101600.34;;;15.59;59.80
74659;BME280;63186;51.204;6.536;2023-05-16T06:40:56;101605.44;;;15.17;60.08
74659;BME280;63186;51.204;6.536;2023-05-16T06:43:21;101607.66;;;14.66;64.39
74659;BME280;63186;51.204;6.536;2023-05-16T06:45:46;101601.72;;;15.30;62.23
74659;BME280;63186;51.204;6.536;2023-05-16T06:48:12;101607.13;;;15.35;60.30
74659;BME280;63186;51.204;6.536;2023-05-16T06:50:39;101605.78;;;14.53;63.69
74659;BME280;63186;51.204;6.536;2023-05-16T06:53:04;101612.81;;;14.82;63.42
74659;BME280;63186;51.204;6.536;2023-05-16T06:55:31;101609.19;;;16.13;58.69
74659;BME280;63186;51.204;6.536;2023-05-16T06:57:56;101610.75;;;14.65;59.39
74659;BME280;63186;51.204;6.536;2023-05-16T07:00:22;101604.50;;;13.56;65.78
74659;BME280;63186;51.204;6.536;2023-05-16T07:02:47;101611.66;;;12.61;68.82
74659;BME280;63186;51.204;6.536;2023-05-16T07:05:12;101613.56;;;13.07;66.39
74659;BME280;63186;51.204;6.536;2023-05-16T07:07:38;101603.69;;;12.73;67.13
74659;BME280;63186;51.204;6.536;2023-05-16T07:10:03;101610.13;;;12.22;68.38
74659;BME280;63186;51.204;6.536;2023-05-16T07:12:28;101609.63;;;11.82;70.93
74659;BME280;63186;51.204;6.536;2023-05-16T07:14:54;101614.16;;;11.92;70.69
74659;BME280;63186;51.204;6.536;2023-05-16T07:17:19;101618.78;;;13.22;66.55
74659;BME280;63186;51.204;6.536;2023-05-16T07:19:44;101618.25;;;13.06;65.03
74659;BME280;63186;51.204;6.536;2023-05-16T07:22:10;101605.50;;;15.34;60.72
74659;BME280;63186;51.204;6.536;2023-05-16T07:24:36;101611.31;;;16.16;57.08
74659;BME280;63186;51.204;6.536;2023-05-16T07:27:01;101616.72;;;14.50;58.71
74659;BME280;63186;51.204;6.536;2023-05-16T07:29:26;101626.88;;;13.46;62.00
74659;BME280;63186;51.204;6.536;2023-05-16T07:31:52;101628.53;;;12.59;63.98
74659;BME280;63186;51.204;6.536;2023-05-16T07:34:17;101629.22;;;12.00;65.08
74659;BME280;63186;51.204;6.536;2023-05-16T07:36:42;101635.38;;;12.29;66.74
74659;BME280;63186;51.204;6.536;2023-05-16T07:39:08;101629.56;;;13.37;63.41
74659;BME280;63186;51.204;6.536;2023-05-16T07:41:33;101619.84;;;14.57;61.27
74659;BME280;63186;51.204;6.536;2023-05-16T07:43:58;101622.28;;;16.94;54.37
74659;BME280;63186;51.204;6.536;2023-05-16T07:46:23;101626.69;;;17.33;50.80
74659;BME280;63186;51.204;6.536;2023-05-16T07:48:49;101626.50;;;16.01;53.89
74659;BME280;63186;51.204;6.536;2023-05-16T07:51:14;101626.69;;;15.30;56.46
74659;BME280;63186;51.204;6.536;2023-05-16T07:53:40;101624.25;;;14.35;58.58
74659;BME280;63186;51.204;6.536;2023-05-16T07:56:06;101630.97;;;14.43;60.64
74659;BME280;63186;51.204;6.536;2023-05-16T07:58:32;101625.75;;;13.33;59.02
74659;BME280;63186;51.204;6.536;2023-05-16T08:00:57;101631.34;;;13.14;63.15
74659;BME280;63186;51.204;6.536;2023-05-16T08:03:22;101630.94;;;13.07;61.68
74659;BME280;63186;51.204;6.536;2023-05-16T08:05:48;101631.59;;;12.25;61.65
74659;BME280;63186;51.204;6.536;2023-05-16T08:08:13;101624.63;;;11.95;63.66
74659;BME280;63186;51.204;6.536;2023-05-16T08:10:38;101623.31;;;11.68;65.99
74659;BME280;63186;51.204;6.536;2023-05-16T08:13:04;101629.00;;;11.96;64.71
74659;BME280;63186;51.204;6.536;2023-05-16T08:15:29;101618.59;;;14.63;57.98
74659;BME280;63186;51.204;6.536;2023-05-16T08:17:57;101626.97;;;16.46;52.28
74659;BME280;63186;51.204;6.536;2023-05-16T08:20:23;101632.59;;;17.61;48.40
74659;BME280;63186;51.204;6.536;2023-05-16T08:22:48;101631.03;;;18.35;47.89
74659;BME280;63186;51.204;6.536;2023-05-16T08:25:13;101628.66;;;18.79;47.79
74659;BME280;63186;51.204;6.536;2023-05-16T08:27:38;101622.25;;;18.90;45.80
74659;BME280;63186;51.204;6.536;2023-05-16T08:30:04;101619.34;;;18.87;47.49
74659;BME280;63186;51.204;6.536;2023-05-16T08:32:30;101626.47;;;19.09;44.78
74659;BME280;63186;51.204;6.536;2023-05-16T08:34:55;101622.88;;;19.33;45.57
74659;BME280;63186;51.204;6.536;2023-05-16T08:37:21;101629.03;;;18.02;49.71
74659;BME280;63186;51.204;6.536;2023-05-16T08:39:46;101630.94;;;18.10;49.00
74659;BME280;63186;51.204;6.536;2023-05-16T08:42:11;101625.03;;;17.91;48.86
74659;BME280;63186;51.204;6.536;2023-05-16T08:44:36;101627.13;;;17.44;51.61
74659;BME280;63186;51.204;6.536;2023-05-16T08:47:16;101619.78;;;17.01;50.35
74659;BME280;63186;51.204;6.536;2023-05-16T08:49:42;101626.28;;;15.54;54.18
74659;BME280;63186;51.204;6.536;2023-05-16T08:52:09;101631.69;;;14.49;59.05
74659;BME280;63186;51.204;6.536;2023-05-16T08:54:35;101627.75;;;14.27;60.37
74659;BME280;63186;51.204;6.536;2023-05-16T08:57:01;101636.94;;;14.14;60.94
74659;BME280;63186;51.204;6.536;2023-05-16T08:59:27;101629.66;;;13.82;59.72
74659;BME280;63186;51.204;6.536;2023-05-16T09:01:54;101633.00;;;13.70;61.81
74659;BME280;63186;51.204;6.536;2023-05-16T09:04:19;101632.56;;;13.77;60.89
74659;BME280;63186;51.204;6.536;2023-05-16T09:06:44;101634.03;;;13.61;61.81
74659;BME280;63186;51.204;6.536;2023-05-16T09:09:10;101637.56;;;13.25;60.65
74659;BME280;63186;51.204;6.536;2023-05-16T09:11:37;101636.06;;;13.14;62.81
74659;BME280;63186;51.204;6.536;2023-05-16T09:14:03;101634.22;;;13.09;62.89
74659;BME280;63186;51.204;6.536;2023-05-16T09:16:29;101638.84;;;13.14;61.65
74659;BME280;63186;51.204;6.536;2023-05-16T09:18:58;101631.41;;;15.21;55.73
74659;BME280;63186;51.204;6.536;2023-05-16T09:21:31;101631.19;;;17.17;50.49
74659;BME280;63186;51.204;6.536;2023-05-16T09:24:04;101635.06;;;17.83;50.20
74659;BME280;63186;51.204;6.536;2023-05-16T09:26:35;101627.53;;;18.26;47.22
74659;BME280;63186;51.204;6.536;2023-05-16T09:29:00;101624.00;;;17.96;49.60
74659;BME280;63186;51.204;6.536;2023-05-16T09:31:27;101624.09;;;17.57;49.98
74659;BME280;63186;51.204;6.536;2023-05-16T09:34:00;101621.50;;;17.82;48.54
74659;BME280;63186;51.204;6.536;2023-05-16T09:36:26;101620.78;;;18.27;49.11
74659;BME280;63186;51.204;6.536;2023-05-16T09:38:51;101620.41;;;17.95;49.33
74659;BME280;63186;51.204;6.536;2023-05-16T09:41:17;101627.50;;;16.14;49.44
74659;BME280;63186;51.204;6.536;2023-05-16T09:43:43;101625.88;;;15.30;55.32
74659;BME280;63186;51.204;6.536;2023-05-16T09:46:15;101619.16;;;15.96;51.62
74659;BME280;63186;51.204;6.536;2023-05-16T09:48:44;101624.94;;;16.90;49.66
74659;BME280;63186;51.204;6.536;2023-05-16T09:51:10;101631.22;;;16.52;51.75
74659;BME280;63186;51.204;6.536;2023-05-16T09:53:36;101620.31;;;16.30;51.36
74659;BME280;63186;51.204;6.536;2023-05-16T09:56:04;101622.09;;;16.26;47.45
74659;BME280;63186;51.204;6.536;2023-05-16T09:58:35;101616.16;;;16.71;50.91
74659;BME280;63186;51.204;6.536;2023-05-16T10:01:01;101613.09;;;17.02;49.92
74659;BME280;63186;51.204;6.536;2023-05-16T10:03:27;101614.34;;;17.13;50.21
74659;BME280;63186;51.204;6.536;2023-05-16T10:05:53;101614.69;;;17.12;48.03
74659;BME280;63186;51.204;6.536;2023-05-16T10:08:24;101610.25;;;17.70;46.90
74659;BME280;63186;51.204;6.536;2023-05-16T10:10:54;101604.50;;;17.45;45.42
74659;BME280;63186;51.204;6.536;2023-05-16T10:13:22;101615.19;;;16.49;48.35
74659;BME280;63186;51.204;6.536;2023-05-16T10:15:53;101597.75;;;15.97;48.94
74659;BME280;63186;51.204;6.536;2023-05-16T10:18:20;101622.75;;;16.14;49.99
74659;BME280;63186;51.204;6.536;2023-05-16T10:20:48;101622.91;;;16.26;46.97
74659;BME280;63186;51.204;6.536;2023-05-16T10:23:18;101627.13;;;16.50;46.58
74659;BME280;63186;51.204;6.536;2023-05-16T10:25:45;101624.81;;;16.61;47.48
74659;BME280;63186;51.204;6.536;2023-05-16T10:28:12;101616.38;;;16.31;47.78
74659;BME280;63186;51.204;6.536;2023-05-16T10:30:42;101615.72;;;15.91;48.68
74659;BME280;63186;51.204;6.536;2023-05-16T10:33:12;101628.72;;;15.56;51.56
74659;BME280;63186;51.204;6.536;2023-05-16T10:35:38;101623.91;;;15.79;48.31
74659;BME280;63186;51.204;6.536;2023-05-16T10:38:05;101615.41;;;15.92;49.71
74659;BME280;63186;51.204;6.536;2023-05-16T10:40:32;101622.41;;;15.90;50.65
74659;BME280;63186;51.204;6.536;2023-05-16T10:43:00;101628.88;;;15.51;51.17
74659;BME280;63186;51.204;6.536;2023-05-16T10:45:26;101633.59;;;15.41;51.32
74659;BME280;63186;51.204;6.536;2023-05-16T10:47:52;101619.38;;;15.34;52.10
74659;BME280;63186;51.204;6.536;2023-05-16T10:50:41;101617.34;;;16.26;50.36
74659;BME280;63186;51.204;6.536;2023-05-16T10:53:19;101616.28;;;16.83;50.08
74659;BME280;63186;51.204;6.536;2023-05-16T11:14:07;101616.19;;;16.36;50.94
74659;BME280;63186;51.204;6.536;2023-05-16T11:16:33;101631.06;;;15.14;54.61
74659;BME280;63186;51.204;6.536;2023-05-16T11:19:06;101619.06;;;13.62;57.03
74659;BME280;63186;51.204;6.536;2023-05-16T11:24:35;101626.97;;;12.99;60.10
74659;BME280;63186;51.204;6.536;2023-05-16T11:27:02;101627.78;;;13.14;59.57
74659;BME280;63186;51.204;6.536;2023-05-16T11:29:35;101636.25;;;13.03;58.76
74659;BME280;63186;51.204;6.536;2023-05-16T11:32:04;101638.75;;;13.05;59.60
74659;BME280;63186;51.204;6.536;2023-05-16T11:34:30;101645.50;;;12.99;60.16
74659;BME280;63186;51.204;6.536;2023-05-16T11:36:56;101642.59;;;12.90;62.58
74659;BME280;63186;51.204;6.536;2023-05-16T11:39:21;101646.16;;;12.77;61.69
74659;BME280;63186;51.204;6.536;2023-05-16T11:41:49;101646.44;;;12.62;67.73
74659;BME280;63186;51.204;6.536;2023-05-16T11:44:15;101648.06;;;12.63;62.93
74659;BME280;63186;51.204;6.536;2023-05-16T11:46:41;101655.59;;;12.90;63.52
74659;BME280;63186;51.204;6.536;2023-05-16T11:49:08;101652.91;;;13.45;60.88
74659;BME280;63186;51.204;6.536;2023-05-16T11:51:36;101650.59;;;13.74;60.93
74659;BME280;63186;51.204;6.536;2023-05-16T11:54:01;101636.56;;;14.07;59.77
74659;BME280;63186;51.204;6.536;2023-05-16T11:56:29;101637.94;;;14.54;59.04
74659;BME280;63186;51.204;6.536;2023-05-16T11:58:55;101635.31;;;14.80;57.50
74659;BME280;63186;51.204;6.536;2023-05-16T12:01:20;101632.28;;;14.99;55.28
74659;BME280;63186;51.204;6.536;2023-05-16T12:03:54;101625.16;;;15.07;53.20
74659;BME280;63186;51.204;6.536;2023-05-16T12:06:19;101628.47;;;14.86;56.25
74659;BME280;63186;51.204;6.536;2023-05-16T12:08:51;101624.03;;;14.77;56.77
74659;BME280;63186;51.204;6.536;2023-05-16T12:11:16;101621.59;;;14.53;57.07
74659;BME280;63186;51.204;6.536;2023-05-16T12:13:42;101631.53;;;14.31;58.10
74659;BME280;63186;51.204;6.536;2023-05-16T12:16:07;101630.03;;;14.03;59.50
74659;BME280;63186;51.204;6.536;2023-05-16T12:18:33;101640.47;;;13.70;60.29
74659;BME280;63186;51.204;6.536;2023-05-16T12:20:58;101637.44;;;13.44;60.46
74659;BME280;63186;51.204;6.536;2023-05-16T12:23:25;101639.09;;;13.31;60.56
74659;BME280;63186;51.204;6.536;2023-05-16T12:25:51;101634.78;;;13.25;60.97
74659;BME280;63186;51.204;6.536;2023-05-16T12:28:19;101632.09;;;13.20;60.59
74659;BME280;63186;51.204;6.536;2023-05-16T12:30:45;101616.88;;;13.72;59.87
74659;BME280;63186;51.204;6.536;2023-05-16T12:33:13;101618.63;;;14.04;57.53
74659;BME280;63186;51.204;6.536;2023-05-16T12:35:41;101621.78;;;14.34;56.77
74659;BME280;63186;51.204;6.536;2023-05-16T12:38:09;101616.31;;;14.65;54.56
74659;BME280;63186;51.204;6.536;2023-05-16T12:40:39;101628.06;;;14.71;50.24
74659;BME280;63186;51.204;6.536;2023-05-16T12:43:12;101630.34;;;14.69;51.09
74659;BME280;63186;51.204;6.536;2023-05-16T12:45:38;101615.97;;;14.66;48.85
74659;BME280;63186;51.204;6.536;2023-05-16T12:48:04;101621.81;;;14.87;50.76
74659;BME280;63186;51.204;6.536;2023-05-16T12:50:32;101621.09;;;15.13;50.67
74659;BME280;63186;51.204;6.536;2023-05-16T12:52:58;101615.31;;;15.49;48.92
74659;BME280;63186;51.204;6.536;2023-05-16T12:55:24;101608.66;;;15.59;45.31
74659;BME280;63186;51.204;6.536;2023-05-16T12:57:51;101612.63;;;15.92;45.12
74659;BME280;63186;51.204;6.536;2023-05-16T13:00:18;101629.59;;;15.82;48.26
74659;BME280;63186;51.204;6.536;2023-05-16T13:02:44;101619.09;;;15.53;49.52
74659;BME280;63186;51.204;6.536;2023-05-16T13:05:10;101610.09;;;15.39;49.82
74659;BME280;63186;51.204;6.536;2023-05-16T13:07:36;101619.38;;;15.52;49.34
74659;BME280;63186;51.204;6.536;2023-05-16T13:10:08;101623.72;;;15.18;49.13
74659;BME280;63186;51.204;6.536;2023-05-16T13:12:38;101622.53;;;15.10;49.35